Time;durP1;ratioP1;P1;durP2;ratioP2;P2;SDS_P1;SDS_P2;PMS_P1;PMS_P2;Temp;Humidity;BMP_temperature;BMP_pressure;BME280_temperature;BME280_humidity;BME280_pressure;Samples;Min_cycle;Max_cycle;Signal;HPM_P1;HPM_P2
2024/01/23 00:00:24;;;;;;;;;2.50;1.75;;;;;9.75;67.17;101914.59;5119155;27;45467;-78
2024/01/23 00:02:49;;;;;;;;;1.50;1.50;;;;;9.66;68.07;101908.72;5118855;27;45337;-77
2024/01/23 00:05:15;;;;;;;;;1.25;1.00;;;;;9.62;67.75;101897.31;5101283;27;45314;-80
2024/01/23 00:07:40;;;;;;;;;2.50;2.00;;;;;9.70;68.39;101918.34;5119722;27;46515;-79
2024/01/23 00:10:06;;;;;;;;;3.25;2.50;;;;;9.57;67.54;101909.88;5120318;27;45368;-79
2024/01/23 00:12:31;;;;;;;;;2.25;1.00;;;;;9.38;67.65;101882.16;5101287;27;45326;-84
2024/01/23 00:14:58;;;;;;;;;2.00;1.00;;;;;9.53;67.33;101912.69;5119646;27;45630;-81
2024/01/23 00:17:24;;;;;;;;;2.00;0.25;;;;;9.30;67.83;101878.88;5118656;27;45423;-78
2024/01/23 00:19:49;;;;;;;;;1.00;1.00;;;;;9.57;69.03;101935.56;5119943;27;45191;-78
2024/01/23 00:22:14;;;;;;;;;1.50;1.25;;;;;9.57;69.03;101935.56;5119170;27;45443;-79
2024/01/23 00:24:40;;;;;;;;;3.00;2.00;;;;;9.58;68.60;101956.78;5118625;27;45330;-78
2024/01/23 00:27:05;;;;;;;;;2.00;2.00;;;;;9.58;68.71;101958.56;5120392;27;45619;-77
2024/01/23 00:29:31;;;;;;;;;7.75;4.50;;;;;9.57;68.46;101972.75;5119141;27;45544;-79
2024/01/23 00:31:56;;;;;;;;;2.75;1.00;;;;;9.56;69.19;101971.03;5118737;27;45283;-80
2024/01/23 00:34:21;;;;;;;;;3.25;1.00;;;;;9.47;69.74;101950.91;5118222;27;45427;-79
2024/01/23 00:36:47;;;;;;;;;3.00;1.25;;;;;9.51;69.06;101962.34;5118545;27;46098;-80
2024/01/23 00:39:12;;;;;;;;;6.50;2.00;;;;;9.56;69.91;101965.69;5100327;27;45414;-77
2024/01/23 00:41:39;;;;;;;;;4.00;1.00;;;;;9.61;69.75;101977.06;5118343;27;45282;-77
2024/01/23 00:44:04;;;;;;;;;4.00;1.00;;;;;9.65;69.26;101998.19;5107227;27;45622;-79
2024/01/23 00:46:29;;;;;;;;;2.50;0.00;;;;;9.75;69.15;101993.44;5139082;27;46249;-80
2024/01/23 00:48:55;;;;;;;;;1.75;0.50;;;;;9.84;69.29;101987.84;5139239;27;45554;-77
2024/01/23 00:51:20;;;;;;;;;1.00;1.00;;;;;9.83;68.66;101995.88;5139261;27;45319;-78
2024/01/23 00:53:45;;;;;;;;;3.00;1.67;;;;;9.60;68.19;101954.06;5132536;27;45666;-79
2024/01/23 00:56:11;;;;;;;;;1.67;0.33;;;;;9.93;67.76;102014.16;5118916;27;45365;-80
2024/01/23 00:58:36;;;;;;;;;3.75;2.00;;;;;9.95;66.28;102007.00;5119174;27;45422;-78
2024/01/23 01:01:02;;;;;;;;;3.50;2.25;;;;;9.84;66.32;101997.63;5121697;27;45340;-79
2024/01/23 01:03:27;;;;;;;;;4.25;1.25;;;;;9.84;65.79;102000.28;5122652;27;45240;-81
2024/01/23 01:05:52;;;;;;;;;1.50;1.00;;;;;9.73;66.67;102005.91;5125396;27;45507;-79
2024/01/23 01:08:18;;;;;;;;;3.00;1.00;;;;;9.62;66.51;102005.34;5138373;27;45730;-82
2024/01/23 01:10:47;;;;;;;;;3.00;2.25;;;;;9.68;67.74;102011.38;5140169;27;45319;-81
2024/01/23 01:13:12;;;;;;;;;3.25;1.00;;;;;9.64;67.97;102017.69;5138188;27;45379;-81
2024/01/23 01:15:38;;;;;;;;;2.25;0.00;;;;;9.62;68.10;102026.59;5119027;27;45363;-80
2024/01/23 01:18:05;;;;;;;;;1.75;1.75;;;;;9.61;68.78;102032.81;5117697;27;45435;-79
2024/01/23 01:20:30;;;;;;;;;1.00;1.00;;;;;9.56;69.34;102032.97;5118597;27;46704;-79
2024/01/23 01:22:56;;;;;;;;;3.00;1.00;;;;;9.57;69.33;102026.75;5118678;27;45484;-82
2024/01/23 01:25:21;;;;;;;;;3.75;2.00;;;;;9.52;69.49;102017.19;5117415;27;46143;-79
2024/01/23 01:27:46;;;;;;;;;1.75;1.75;;;;;9.52;68.99;102014.53;5120816;27;45364;-78
2024/01/23 01:30:12;;;;;;;;;2.00;0.00;;;;;9.61;69.26;102032.81;5139760;27;45431;-78
2024/01/23 01:32:38;;;;;;;;;2.00;2.00;;;;;9.44;69.28;102010.28;5140186;27;45319;-77
2024/01/23 01:35:03;;;;;;;;;4.50;1.00;;;;;9.52;69.70;102028.66;5120479;27;45534;-80
2024/01/23 01:37:29;;;;;;;;;2.50;1.25;;;;;9.35;69.95;102015.84;5118349;27;45417;-79
2024/01/23 01:39:54;;;;;;;;;8.25;1.75;;;;;9.57;70.71;102055.09;5118875;27;45197;-80
2024/01/23 01:42:19;;;;;;;;;1.00;1.00;;;;;9.56;70.21;102072.81;5116555;27;45565;-79
2024/01/23 01:44:45;;;;;;;;;2.50;2.00;;;;;9.41;70.50;102046.69;5124880;27;46796;-83
2024/01/23 01:47:10;;;;;;;;;1.50;0.75;;;;;9.54;70.66;102065.81;5139845;27;45164;-78
2024/01/23 01:49:36;;;;;;;;;3.50;1.00;;;;;9.52;70.80;102064.97;5140602;27;45300;-80
2024/01/23 01:52:03;;;;;;;;;2.00;2.00;;;;;9.42;71.28;102056.41;5118021;27;45613;-84
2024/01/23 01:54:29;;;;;;;;;3.00;3.00;;;;;9.36;71.39;102049.44;5122528;27;45712;-81
2024/01/23 01:56:56;;;;;;;;;0.00;0.00;;;;;9.51;71.00;102079.19;5122931;27;45284;-78
2024/01/23 01:59:21;;;;;;;;;6.00;2.50;;;;;9.49;71.25;102080.97;5123651;27;45531;-84
2024/01/23 02:01:47;;;;;;;;;5.50;2.00;;;;;9.42;70.90;102064.38;5122957;27;45328;-79
2024/01/23 02:04:13;;;;;;;;;0.75;0.75;;;;;9.42;70.88;102081.16;5122263;27;45955;-78
2024/01/23 02:06:39;;;;;;;;;3.75;2.50;;;;;9.46;71.50;102092.56;5121560;27;45472;-81
2024/01/23 02:09:04;;;;;;;;;2.25;2.00;;;;;9.42;71.24;102078.50;5135555;27;45499;-82
2024/01/23 02:11:30;;;;;;;;;3.00;1.50;;;;;9.27;71.09;102059.47;5121328;27;45450;-80
2024/01/23 02:13:55;;;;;;;;;1.75;1.50;;;;;9.33;70.80;102083.19;5119127;27;47003;-78
2024/01/23 02:16:21;;;;;;;;;6.25;2.50;;;;;9.31;71.02;102072.63;5120612;27;45401;-80
2024/01/23 02:18:47;;;;;;;;;2.50;1.25;;;;;9.36;71.35;102091.06;5119976;27;45631;-79
2024/01/23 02:21:14;;;;;;;;;2.75;2.75;;;;;9.37;71.34;102096.31;5102589;27;45480;-79
2024/01/23 02:23:41;;;;;;;;;3.50;1.25;;;;;9.40;70.69;102101.59;5120423;27;45659;-78
2024/01/23 02:26:06;;;;;;;;;3.00;1.50;;;;;9.34;70.77;102091.13;5120534;27;45420;-79
2024/01/23 02:28:31;;;;;;;;;2.00;2.00;;;;;9.33;71.77;102105.31;5134852;27;45380;-79
2024/01/23 02:30:57;;;;;;;;;3.00;1.50;;;;;9.22;71.72;102082.59;5141437;27;45400;-80
2024/01/23 02:33:22;;;;;;;;;3.00;2.00;;;;;9.28;72.23;102093.94;5138294;27;46587;-78
2024/01/23 02:35:48;;;;;;;;;2.00;1.50;;;;;9.19;71.65;102080.91;5140812;27;45249;-79
2024/01/23 02:38:13;;;;;;;;;2.75;1.00;;;;;9.32;72.07;102100.91;5126056;27;45330;-77
2024/01/23 02:40:38;;;;;;;;;2.00;2.00;;;;;9.25;71.48;102088.72;5120419;27;45351;-80
2024/01/23 02:43:03;;;;;;;;;6.25;1.25;;;;;9.18;72.31;102076.50;5119411;27;45950;-78
2024/01/23 02:45:29;;;;;;;;;5.50;1.00;;;;;9.03;72.04;102050.38;5120278;27;45305;-80
2024/01/23 02:47:54;;;;;;;;;3.50;2.00;;;;;9.21;72.32;102075.56;5119284;27;45471;-79
2024/01/23 02:50:19;;;;;;;;;6.25;2.00;;;;;9.29;71.76;102084.19;5120243;27;45308;-79
2024/01/23 02:52:45;;;;;;;;;2.50;2.25;;;;;9.23;72.89;102085.22;5120639;27;46120;-79
2024/01/23 02:55:10;;;;;;;;;7.00;3.00;;;;;9.23;71.91;102087.00;5120183;27;45223;-78
2024/01/23 02:57:36;;;;;;;;;1.00;1.00;;;;;9.21;72.91;102087.03;5120242;27;45321;-83
2024/01/23 03:00:02;;;;;;;;;5.50;1.50;;;;;9.25;72.83;102079.91;5120971;27;45345;-79
2024/01/23 03:02:28;;;;;;;;;4.00;1.00;;;;;9.20;72.67;102073.81;5120033;27;47342;-79
2024/01/23 03:04:54;;;;;;;;;4.00;2.00;;;;;9.25;73.32;102088.72;5118946;27;45321;-80
2024/01/23 03:07:19;;;;;;;;;2.00;0.75;;;;;9.20;72.98;102089.75;5120436;27;45279;-81
2024/01/23 03:09:44;;;;;;;;;3.00;2.00;;;;;9.19;73.01;102099.50;5120184;27;45615;-79
2024/01/23 03:12:23;;;;;;;;;2.00;2.00;;;;;9.19;73.39;102080.91;5117086;27;45534;-80
2024/01/23 03:14:49;;;;;;;;;3.00;1.00;;;;;9.24;73.34;102091.41;5119125;27;45373;-80
2024/01/23 03:17:16;;;;;;;;;0.50;0.50;;;;;9.21;72.99;102092.34;5101905;27;45321;-80
2024/01/23 03:19:42;;;;;;;;;8.25;2.00;;;;;9.21;73.25;102102.97;5119726;27;45644;-81
2024/01/23 03:22:08;;;;;;;;;1.75;1.50;;;;;9.13;73.12;102094.34;5120945;27;46253;-80
2024/01/23 03:24:36;;;;;;;;;5.50;1.75;;;;;9.20;73.14;102117.16;5119805;27;45253;-81
2024/01/23 03:27:03;;;;;;;;;6.00;1.00;;;;;9.14;74.02;102112.91;5119243;27;45638;-82
2024/01/23 03:29:29;;;;;;;;;3.00;2.00;;;;;9.10;73.53;102107.69;5125929;27;45491;-81
2024/01/23 03:31:54;;;;;;;;;7.75;3.00;;;;;9.13;73.80;102129.72;5140345;27;46061;-80
2024/01/23 03:34:19;;;;;;;;;2.75;0.00;;;;;9.10;73.57;102111.22;5140378;27;45331;-79
2024/01/23 03:36:45;;;;;;;;;4.00;3.00;;;;;9.09;73.48;102120.09;5140843;27;45217;-80
2024/01/23 03:39:11;;;;;;;;;7.25;2.25;;;;;9.09;73.68;102106.81;5140976;27;45290;-80
2024/01/23 03:41:37;;;;;;;;;7.00;1.00;;;;;9.12;73.17;102119.16;5137671;27;45507;-79
2024/01/23 03:44:06;;;;;;;;;5.00;1.00;;;;;9.03;74.24;102103.47;5132894;27;45345;-79
2024/01/23 03:46:32;;;;;;;;;3.75;1.00;;;;;9.09;74.22;102124.53;5119053;27;45393;-81
2024/01/23 03:48:57;;;;;;;;;2.00;2.00;;;;;9.09;74.49;102121.88;5118227;27;45649;-82
2024/01/23 03:51:22;;;;;;;;;3.00;2.00;;;;;9.02;74.42;102126.47;5126181;27;45338;-80
2024/01/23 03:53:48;;;;;;;;;2.50;1.75;;;;;8.95;73.83;102124.00;5126126;27;45480;-79
2024/01/23 03:56:15;;;;;;;;;3.00;1.75;;;;;8.95;74.04;102130.16;5119374;27;45431;-79
2024/01/23 03:58:41;;;;;;;;;4.75;2.50;;;;;9.00;74.40;102140.69;5119772;27;45361;-81
2024/01/23 04:01:07;;;;;;;;;2.25;1.75;;;;;9.00;74.49;102141.56;5120088;27;45996;-82
2024/01/23 04:03:32;;;;;;;;;2.00;2.00;;;;;9.03;74.62;102145.91;5119321;27;45334;-80
2024/01/23 04:05:57;;;;;;;;;2.00;2.00;;;;;9.00;74.41;102151.31;5116930;27;51029;-79
2024/01/23 04:08:22;;;;;;;;;3.50;1.50;;;;;8.97;74.58;102146.94;5120572;27;45230;-78
2024/01/23 04:10:48;;;;;;;;;10.25;2.00;;;;;8.96;74.81;102152.28;5119358;27;66505;-80
2024/01/23 04:13:13;;;;;;;;;3.00;1.00;;;;;9.03;73.72;102168.03;5119863;27;45426;-79
2024/01/23 04:15:38;;;;;;;;;6.25;1.75;;;;;9.07;73.96;102175.00;5120421;27;45614;-78
2024/01/23 04:18:04;;;;;;;;;3.00;1.75;;;;;9.00;73.94;102151.31;5119846;27;45194;-79
2024/01/23 04:20:29;;;;;;;;;3.00;1.50;;;;;9.10;74.52;102177.56;5117759;27;45507;-80
2024/01/23 04:22:55;;;;;;;;;6.50;2.50;;;;;8.94;74.13;102146.13;5118920;27;45393;-78
2024/01/23 04:25:20;;;;;;;;;3.00;1.00;;;;;8.98;74.35;102137.19;5119067;27;45561;-81
2024/01/23 04:27:45;;;;;;;;;8.00;4.00;;;;;9.06;74.03;102141.41;5119074;27;45393;-78
2024/01/23 04:30:11;;;;;;;;;5.75;3.25;;;;;9.22;72.90;102160.47;5116419;27;45400;-80
2024/01/23 04:32:37;;;;;;;;;2.00;2.00;;;;;9.20;73.25;102156.97;5118072;27;45482;-79
2024/01/23 04:35:02;;;;;;;;;1.75;1.00;;;;;9.25;72.99;102165.72;5118700;27;45399;-79
2024/01/23 04:37:28;;;;;;;;;9.50;3.00;;;;;9.23;72.91;102159.53;5117730;27;45615;-78
2024/01/23 04:39:53;;;;;;;;;9.00;3.25;;;;;9.29;72.64;102172.69;5117723;27;45948;-76
2024/01/23 04:42:19;;;;;;;;;5.50;2.75;;;;;9.12;73.20;102162.50;5118896;27;45260;-77
2024/01/23 04:44:44;;;;;;;;;4.75;1.50;;;;;9.32;73.09;102191.19;5118394;27;45527;-80
2024/01/23 04:47:09;;;;;;;;;1.00;1.00;;;;;9.32;73.01;102195.63;5118777;27;45324;-81
2024/01/23 04:49:35;;;;;;;;;6.50;3.00;;;;;9.41;73.26;102198.91;5099749;27;46319;-79
2024/01/23 04:52:00;;;;;;;;;3.25;1.75;;;;;9.38;73.03;102206.09;5134614;27;45524;-79
2024/01/23 04:54:25;;;;;;;;;7.25;2.50;;;;;9.50;72.73;102212.84;5139252;27;45277;-79
2024/01/23 04:56:51;;;;;;;;;3.75;2.00;;;;;9.53;72.96;102220.75;5137847;27;54438;-82
2024/01/23 04:59:16;;;;;;;;;4.25;2.00;;;;;9.50;72.09;102210.19;5118950;27;52656;-78
2024/01/23 05:01:41;;;;;;;;;8.50;1.00;;;;;9.66;71.64;102244.31;5116216;27;57380;-79
2024/01/23 05:04:07;;;;;;;;;6.25;1.00;;;;;9.64;72.54;102237.31;5118823;27;45256;-81
2024/01/23 05:06:32;;;;;;;;;3.67;1.67;;;;;9.63;71.61;102232.88;5100563;27;45627;-80
2024/01/23 05:08:57;;;;;;;;;3.75;2.75;;;;;9.68;71.97;102233.63;5118187;27;46304;-80
2024/01/23 05:11:23;;;;;;;;;4.25;1.00;;;;;9.67;71.76;102231.91;5117545;27;46293;-80
2024/01/23 05:13:48;;;;;;;;;3.75;2.50;;;;;9.65;72.56;102221.31;5117339;27;45235;-80
2024/01/23 05:16:13;;;;;;;;;3.75;3.25;;;;;9.65;73.01;102220.44;5118080;27;45587;-80
2024/01/23 05:18:39;;;;;;;;;3.25;2.75;;;;;9.66;72.63;102235.47;5117543;27;45249;-80
2024/01/23 05:21:04;;;;;;;;;6.50;2.75;;;;;9.58;72.28;102229.47;5117171;27;45554;-79
2024/01/23 05:23:29;;;;;;;;;7.25;3.00;;;;;9.67;72.71;102247.84;5116462;27;45329;-81
2024/01/23 05:25:55;;;;;;;;;6.25;2.00;;;;;9.60;72.43;102249.75;5119944;27;45295;-78
2024/01/23 05:28:20;;;;;;;;;3.25;2.25;;;;;9.60;72.59;102247.09;5137943;27;45361;-78
2024/01/23 05:30:46;;;;;;;;;7.00;2.00;;;;;9.55;73.11;102251.69;5128697;27;45406;-79
2024/01/23 05:33:11;;;;;;;;;8.00;2.25;;;;;9.56;72.52;102265.84;5117559;27;49888;-80
2024/01/23 05:35:37;;;;;;;;;3.75;1.00;;;;;9.56;72.71;102273.81;5118797;27;45483;-78
2024/01/23 05:38:02;;;;;;;;;6.75;2.75;;;;;9.61;72.21;102279.84;5099309;27;46512;-80
2024/01/23 05:40:27;;;;;;;;;2.50;2.50;;;;;9.49;72.95;102262.44;5116158;27;45467;-79
2024/01/23 05:42:53;;;;;;;;;3.00;1.00;;;;;9.60;72.61;102286.94;5117719;27;45516;-77
2024/01/23 05:45:18;;;;;;;;;3.75;2.00;;;;;9.56;73.02;102285.28;5117701;27;45239;-80
2024/01/23 05:47:43;;;;;;;;;3.50;2.25;;;;;9.58;72.61;102293.22;5117404;27;45409;-79
2024/01/23 05:50:09;;;;;;;;;6.50;2.25;;;;;9.47;72.73;102280.19;5122743;27;45365;-79
2024/01/23 05:52:34;;;;;;;;;2.25;0.75;;;;;9.52;73.03;102288.06;5138441;27;45377;-79
2024/01/23 05:55:00;;;;;;;;;5.25;3.25;;;;;9.57;73.53;102300.31;5138603;27;45678;-80
2024/01/23 05:57:26;;;;;;;;;3.00;2.00;;;;;9.54;72.64;102307.50;5128546;27;46314;-78
2024/01/23 05:59:51;;;;;;;;;2.25;2.25;;;;;9.64;72.88;102317.00;5115963;27;45346;-81
2024/01/23 06:02:17;;;;;;;;;3.50;2.75;;;;;9.63;72.54;102323.19;5115436;27;45506;-80
2024/01/23 06:04:42;;;;;;;;;6.75;3.00;;;;;9.65;73.42;102321.41;5116557;27;45483;-81
2024/01/23 06:07:08;;;;;;;;;3.50;2.75;;;;;9.63;72.75;102329.38;5117236;27;45401;-83
2024/01/23 06:09:33;;;;;;;;;4.00;3.00;;;;;9.65;72.81;102316.09;5103051;27;45420;-79
2024/01/23 06:11:59;;;;;;;;;4.50;3.00;;;;;9.50;72.32;102284.56;5136384;27;45306;-78
2024/01/23 06:14:24;;;;;;;;;5.00;3.00;;;;;9.61;73.01;102319.69;5137370;27;45217;-79
2024/01/23 06:16:50;;;;;;;;;7.75;2.50;;;;;9.42;72.00;102287.41;5125291;27;48309;-81
2024/01/23 06:19:17;;;;;;;;;8.00;2.00;;;;;9.62;73.11;102317.00;5097731;27;45472;-82
2024/01/23 06:21:42;;;;;;;;;6.75;2.75;;;;;9.61;73.01;102330.31;5117536;27;45440;-79
2024/01/23 06:24:08;;;;;;;;;7.00;3.00;;;;;9.51;72.22;102302.28;5099279;27;45446;-81
2024/01/23 06:26:33;;;;;;;;;3.00;2.00;;;;;9.51;72.61;102310.22;5117429;27;45395;-80
2024/01/23 06:28:59;;;;;;;;;4.75;3.00;;;;;9.55;74.11;102310.13;5117972;27;45448;-79
2024/01/23 06:31:27;;;;;;;;;4.00;2.50;;;;;9.48;72.77;102304.97;5135932;27;45503;-83
2024/01/23 06:33:53;;;;;;;;;2.50;1.00;;;;;9.53;73.62;102316.38;5118503;27;45550;-81
2024/01/23 06:36:19;;;;;;;;;7.50;4.00;;;;;9.53;73.35;102321.69;5115985;27;46804;-82
2024/01/23 06:38:44;;;;;;;;;7.75;3.00;;;;;9.58;72.97;102322.44;5117217;27;45237;-82
2024/01/23 06:41:10;;;;;;;;;7.50;0.75;;;;;9.53;73.32;102311.06;5121331;27;45258;-79
2024/01/23 06:43:38;;;;;;;;;6.75;5.25;;;;;9.39;73.52;102280.41;5123889;27;45283;-78
2024/01/23 06:46:04;;;;;;;;;3.00;2.00;;;;;9.55;73.27;102314.56;5127176;27;45492;-78
2024/01/23 06:48:32;;;;;;;;;4.50;2.00;;;;;9.55;73.67;102310.13;5133980;27;45475;-81
2024/01/23 06:50:57;;;;;;;;;6.00;2.25;;;;;9.43;73.60;102295.34;5140899;27;45266;-77
2024/01/23 06:53:24;;;;;;;;;3.50;2.00;;;;;9.54;73.21;102313.69;5110878;27;45291;-83
2024/01/23 06:55:49;;;;;;;;;5.00;2.75;;;;;9.53;73.48;102319.03;5124680;27;46282;-80
2024/01/23 06:58:15;;;;;;;;;9.75;4.25;;;;;9.57;73.82;102318.03;5133940;27;45289;-78
2024/01/23 07:00:40;;;;;;;;;6.50;3.50;;;;;9.57;73.77;102323.34;5142198;27;45461;-81
2024/01/23 07:03:06;;;;;;;;;1.25;1.25;;;;;9.53;73.89;102321.69;5124131;27;45537;-76
2024/01/23 07:05:31;;;;;;;;;7.00;5.75;;;;;9.54;74.23;102319.00;5131049;27;46035;-85
2024/01/23 07:07:57;;;;;;;;;4.00;3.00;;;;;9.54;74.63;102332.28;5127610;27;45441;-81
2024/01/23 07:10:22;;;;;;;;;2.75;2.75;;;;;9.46;74.28;102307.66;5141245;27;45419;-79
2024/01/23 07:12:48;;;;;;;;;2.25;2.25;;;;;9.54;74.09;102328.75;5140399;27;45320;-80
2024/01/23 07:15:13;;;;;;;;;4.50;2.00;;;;;9.44;74.66;102318.34;5120434;27;46091;-80
2024/01/23 07:17:38;;;;;;;;;4.50;4.00;;;;;9.49;75.02;102335.94;5119616;27;48180;-79
2024/01/23 07:20:05;;;;;;;;;14.25;3.00;;;;;9.43;74.78;102332.53;5120404;27;45544;-81
2024/01/23 07:22:30;;;;;;;;;7.50;3.00;;;;;9.53;74.96;102353.56;5121571;27;45199;-77
2024/01/23 07:25:01;;;;;;;;;7.50;2.00;;;;;9.54;75.14;102360.63;5119897;27;45944;-79
2024/01/23 07:27:26;;;;;;;;;9.00;4.50;;;;;9.58;75.06;102365.81;5140811;27;45500;-80
2024/01/23 07:29:51;;;;;;;;;8.00;4.00;;;;;9.62;75.35;102363.94;5140070;27;45320;-82
2024/01/23 07:32:16;;;;;;;;;3.75;3.75;;;;;9.57;74.92;102342.81;5135056;27;45550;-77
2024/01/23 07:34:42;;;;;;;;;6.25;3.00;;;;;9.62;75.01;102348.00;5132086;27;45511;-78
2024/01/23 07:37:07;;;;;;;;;2.25;2.25;;;;;9.58;75.38;102349.00;5120675;27;45443;-80
2024/01/23 07:39:32;;;;;;;;;6.00;2.25;;;;;9.57;75.54;102339.28;5117953;27;45431;-78
2024/01/23 07:41:58;;;;;;;;;5.00;4.00;;;;;9.57;75.36;102339.28;5117566;27;46288;-80
2024/01/23 07:44:23;;;;;;;;;3.50;2.25;;;;;9.67;75.23;102348.78;5118842;27;46037;-80
2024/01/23 07:46:48;;;;;;;;;4.00;4.00;;;;;9.66;74.83;102345.25;5118596;27;45386;-81
2024/01/23 07:49:15;;;;;;;;;6.50;3.00;;;;;9.65;75.19;102347.97;5119211;27;45431;-78
2024/01/23 07:51:50;;;;;;;;;3.00;2.00;;;;;9.70;75.38;102357.56;5099872;27;45484;-79
2024/01/23 07:54:16;;;;;;;;;7.25;3.75;;;;;9.72;75.57;102360.16;5119021;27;45292;-81
2024/01/23 07:56:42;;;;;;;;;7.25;2.25;;;;;9.69;74.90;102360.25;5119901;27;45275;-82
2024/01/23 07:59:08;;;;;;;;;8.00;4.00;;;;;9.72;74.75;102378.75;5121137;27;45247;-77
2024/01/23 08:01:33;;;;;;;;;7.00;3.00;;;;;9.65;75.10;102367.44;5121458;27;45157;-78
2024/01/23 08:03:58;;;;;;;;;6.25;3.00;;;;;9.70;74.88;102375.28;5121845;27;45384;-80
2024/01/23 08:06:24;;;;;;;;;12.00;3.00;;;;;9.68;74.77;102369.13;5122053;27;45377;-80
2024/01/23 08:08:50;;;;;;;;;5.50;3.75;;;;;9.71;74.98;102379.69;5120991;27;45303;-81
2024/01/23 08:11:16;;;;;;;;;7.50;4.25;;;;;9.85;76.05;102397.94;5121072;27;45602;-80
2024/01/23 08:13:41;;;;;;;;;8.25;6.25;;;;;9.89;75.18;102391.63;5122046;27;45972;-79
2024/01/23 08:16:10;;;;;;;;;10.50;7.25;;;;;9.92;75.45;102391.59;5103079;27;45428;-78
2024/01/23 08:18:36;;;;;;;;;16.75;4.00;;;;;9.91;75.73;102382.75;5120166;27;45233;-80
2024/01/23 08:21:02;;;;;;;;;7.00;1.67;;;;;9.95;75.54;102391.50;5120231;27;45207;-80
2024/01/23 08:23:28;;;;;;;;;5.75;3.75;;;;;9.92;74.91;102384.47;5120737;27;46743;-83
2024/01/23 08:25:54;;;;;;;;;8.00;4.00;;;;;9.98;74.57;102381.66;5119672;27;45291;-82
2024/01/23 08:28:19;;;;;;;;;8.50;3.50;;;;;9.95;75.22;102379.09;5119512;27;45165;-78
2024/01/23 08:30:45;;;;;;;;;6.50;3.00;;;;;10.04;74.95;102394.81;5119449;27;45271;-80
2024/01/23 08:33:17;;;;;;;;;5.75;3.00;;;;;10.08;74.46;102390.28;5101731;27;47212;-81
2024/01/23 08:35:42;;;;;;;;;7.00;3.00;;;;;10.14;74.22;102398.09;5100568;27;45222;-79
2024/01/23 08:38:09;;;;;;;;;1.50;0.50;;;;;9.93;74.64;102358.78;5120011;27;45401;-85
2024/01/23 08:40:35;;;;;;;;;5.25;3.25;;;;;10.19;74.96;102398.00;5104376;27;45492;-84
2024/01/23 08:43:00;;;;;;;;;7.50;2.50;;;;;10.22;74.58;102393.50;5101948;27;46621;-81
2024/01/23 08:45:26;;;;;;;;;4.00;4.00;;;;;10.26;74.55;102399.59;5119167;27;45357;-78
2024/01/23 08:47:51;;;;;;;;;3.00;3.00;;;;;10.30;74.39;102403.94;5119456;27;45435;-79
2024/01/23 08:50:16;;;;;;;;;9.00;4.00;;;;;10.15;74.39;102381.22;5100683;27;45629;-81
2024/01/23 08:52:43;;;;;;;;;5.25;2.75;;;;;10.24;74.87;102396.09;5119183;27;45930;-80
2024/01/23 08:55:09;;;;;;;;;7.00;5.00;;;;;10.28;74.55;102403.94;5118801;27;45475;-77
2024/01/23 08:57:35;;;;;;;;;6.00;4.50;;;;;10.29;74.32;102405.72;5119094;27;45404;-80
2024/01/23 09:00:00;;;;;;;;;5.25;5.25;;;;;10.24;74.76;102385.47;5120428;27;45394;-83
2024/01/23 09:02:28;;;;;;;;;12.75;3.00;;;;;10.20;74.98;102381.13;5120186;27;45930;-76
2024/01/23 09:04:53;;;;;;;;;9.75;4.25;;;;;10.22;75.24;102389.97;5101411;27;45420;-75
2024/01/23 09:07:18;;;;;;;;;8.00;4.00;;;;;10.33;74.61;102398.53;5117758;27;51559;-80
2024/01/23 09:09:44;;;;;;;;;8.50;6.25;;;;;10.39;74.28;102406.34;5118704;27;45239;-77
2024/01/23 09:12:10;;;;;;;;;8.00;3.33;;;;;10.39;74.48;102385.06;5118285;27;46293;-78
2024/01/23 09:14:35;;;;;;;;;7.50;3.75;;;;;10.56;74.07;102396.13;5118300;27;45313;-78
2024/01/23 09:17:01;;;;;;;;;5.00;3.00;;;;;10.58;74.00;102399.63;5118278;27;45440;-77
2024/01/23 09:19:27;;;;;;;;;6.25;3.50;;;;;10.69;74.00;102415.31;5118080;27;45422;-79
2024/01/23 09:21:54;;;;;;;;;4.00;3.25;;;;;10.63;73.40;102386.19;5118093;27;46032;-84
2024/01/23 09:24:19;;;;;;;;;8.75;4.50;;;;;10.85;73.07;102395.31;5118713;27;45512;-78
2024/01/23 09:26:47;;;;;;;;;11.25;8.50;;;;;10.83;73.02;102390.97;5119769;27;45320;-82
2024/01/23 09:29:12;;;;;;;;;7.00;3.25;;;;;10.87;72.63;102381.97;5101005;27;45937;-83
2024/01/23 09:31:46;;;;;;;;;6.50;5.00;;;;;10.93;72.57;102382.63;5118235;27;46127;-80
2024/01/23 09:34:13;;;;;;;;;6.75;3.00;;;;;11.04;72.40;102395.66;5117385;27;45734;-79
2024/01/23 09:36:38;;;;;;;;;3.50;3.50;;;;;11.05;72.47;102392.06;5118011;27;45296;-82
2024/01/23 09:39:04;;;;;;;;;10.50;5.00;;;;;11.00;72.53;102399.31;5117807;27;45245;-78
2024/01/23 09:41:34;;;;;;;;;9.00;5.00;;;;;10.92;72.62;102372.03;5099701;27;46968;-80
2024/01/23 09:44:00;;;;;;;;;5.75;3.00;;;;;10.99;72.87;102376.28;5117962;27;45424;-80
2024/01/23 09:46:25;;;;;;;;;8.00;4.00;;;;;11.10;72.10;102379.50;5118915;27;45808;-78
2024/01/23 09:48:52;;;;;;;;;6.75;4.25;;;;;11.20;72.37;102377.44;5119645;27;45375;-79
2024/01/23 09:51:20;;;;;;;;;5.00;2.33;;;;;11.17;71.69;102370.41;5117053;27;46619;-85
2024/01/23 09:53:46;;;;;;;;;11.00;8.25;;;;;11.13;71.34;102366.09;5118974;27;45212;-81
2024/01/23 09:56:12;;;;;;;;;3.67;3.33;;;;;11.17;71.69;102374.84;5119128;27;45522;-78
2024/01/23 09:58:38;;;;;;;;;9.50;6.25;;;;;11.13;71.74;102373.22;5119455;27;45309;-79
2024/01/23 10:01:05;;;;;;;;;7.25;3.25;;;;;11.09;71.79;102350.28;5118867;27;45483;-80
2024/01/23 10:03:36;;;;;;;;;7.75;7.00;;;;;11.10;71.31;102358.22;5117681;27;45480;-78
2024/01/23 10:06:03;;;;;;;;;8.75;5.25;;;;;11.08;72.00;102357.38;5117234;27;45342;-78
2024/01/23 10:08:29;;;;;;;;;8.50;4.00;;;;;11.12;71.93;102367.00;5127002;27;45369;-79
2024/01/23 10:10:58;;;;;;;;;4.00;4.00;;;;;11.06;71.83;102367.19;5127255;27;46510;-87
2024/01/23 10:13:24;;;;;;;;;6.00;4.00;;;;;11.05;72.07;102361.91;5108416;27;45334;-82
2024/01/23 10:15:53;;;;;;;;;8.33;3.00;;;;;10.99;71.99;102360.31;5125838;27;45272;-84
2024/01/23 10:18:19;;;;;;;;;6.67;4.00;;;;;10.84;72.86;102344.78;5126818;27;45622;-88
2024/01/23 10:20:46;;;;;;;;;9.00;4.50;;;;;10.90;72.48;102358.78;5088105;27;47081;-87
2024/01/23 10:23:11;;;;;;;;;6.33;3.00;;;;;10.91;72.74;102362.31;5122829;27;45252;-78
2024/01/23 10:25:38;;;;;;;;;7.50;5.00;;;;;10.78;72.61;102350.28;5122376;27;45184;-84
2024/01/23 10:28:08;;;;;;;;;6.25;5.50;;;;;10.58;73.11;102321.59;5139552;27;45647;-81
2024/01/23 10:30:36;;;;;;;;;8.67;4.00;;;;;10.77;73.35;102364.50;5121996;27;46201;-81
2024/01/23 10:33:02;;;;;;;;;14.67;3.33;;;;;10.63;73.55;102344.47;5122145;27;45349;-80
2024/01/23 10:35:27;;;;;;;;;9.33;4.67;;;;;10.69;73.87;102366.53;5103694;27;45268;-82
2024/01/23 10:37:54;;;;;;;;;5.67;4.00;;;;;10.61;74.08;102356.09;5122391;27;45230;-79
2024/01/23 10:40:23;;;;;;;;;5.50;4.50;;;;;10.64;75.18;102366.63;5121709;27;45404;-80
2024/01/23 10:42:49;;;;;;;;;4.50;4.50;;;;;10.56;74.58;102350.91;5121165;27;45409;-82
2024/01/23 10:45:17;;;;;;;;;3.00;3.00;;;;;10.62;74.84;102368.47;5121335;27;45329;-79
2024/01/23 10:47:43;;;;;;;;;5.00;3.25;;;;;10.53;74.89;102356.28;5126827;27;45556;-81
2024/01/23 10:50:08;;;;;;;;;7.25;3.75;;;;;10.62;75.84;102374.66;5106208;27;47342;-81
2024/01/23 10:52:39;;;;;;;;;8.00;4.67;;;;;10.74;75.57;102375.25;5105903;27;45377;-82
2024/01/23 10:55:06;;;;;;;;;10.33;7.00;;;;;10.69;76.76;102339.91;5121556;27;45320;-78
2024/01/23 10:57:36;;;;;;;;;9.00;5.00;;;;;10.56;77.61;102308.34;5121898;27;45509;-80
2024/01/23 11:00:10;;;;;;;;;9.00;7.50;;;;;10.55;77.81;102327.00;5121808;27;46112;-81
2024/01/23 11:02:50;;;;;;;;;9.50;8.75;;;;;10.58;78.52;102319.81;5120443;27;45405;-84
2024/01/23 11:05:20;;;;;;;;;3.50;1.75;;;;;10.61;78.52;102322.38;5121191;27;45326;-79
2024/01/23 11:08:09;;;;;;;;;9.75;7.25;;;;;10.68;78.79;102327.50;5105752;27;45277;-77
2024/01/23 11:10:47;;;;;;;;;5.75;5.25;;;;;10.66;79.07;102318.69;5124357;27;45283;-81
2024/01/23 11:13:23;;;;;;;;;11.00;5.00;;;;;10.68;79.18;102322.19;5124541;27;45428;-80
2024/01/23 11:15:48;;;;;;;;;8.00;6.50;;;;;10.64;79.67;102285.03;5105181;27;45274;-79
2024/01/23 11:18:28;;;;;;;;;11.00;7.50;;;;;10.71;79.54;102284.88;5123293;27;45580;-78
2024/01/23 11:21:08;;;;;;;;;5.25;4.75;;;;;10.71;79.99;102291.06;5122707;27;45454;-81
2024/01/23 11:23:45;;;;;;;;;13.75;4.75;;;;;10.74;80.08;102259.03;5121490;27;45181;-85
2024/01/23 11:26:22;;;;;;;;;3.50;3.50;;;;;10.85;79.97;102264.91;5119492;27;45361;-82